sensor_id;sensor_type;location;lat;lon;timestamp;temperature;humidity
43651;DHT22;29247;50.944;5.382;2023-04-01T00:01:07;12.40;88.90
43651;DHT22;29247;50.944;5.382;2023-04-01T00:03:36;12.30;88.80
43651;DHT22;29247;50.944;5.382;2023-04-01T00:06:02;12.30;88.90
43651;DHT22;29247;50.944;5.382;2023-04-01T00:08:31;12.30;88.90
43651;DHT22;29247;50.944;5.382;2023-04-01T00:10:58;12.30;89.00
43651;DHT22;29247;50.944;5.382;2023-04-01T00:13:25;12.30;89.00
43651;DHT22;29247;50.944;5.382;2023-04-01T00:15:52;12.30;89.00
43651;DHT22;29247;50.944;5.382;2023-04-01T00:18:20;12.30;89.10
43651;DHT22;29247;50.944;5.382;2023-04-01T00:20:51;12.30;89.20
43651;DHT22;29247;50.944;5.382;2023-04-01T00:23:17;12.30;89.20
43651;DHT22;29247;50.944;5.382;2023-04-01T00:25:44;12.30;89.00
43651;DHT22;29247;50.944;5.382;2023-04-01T00:28:12;12.30;89.10
43651;DHT22;29247;50.944;5.382;2023-04-01T00:30:40;12.30;89.30
43651;DHT22;29247;50.944;5.382;2023-04-01T00:33:06;12.30;89.40
43651;DHT22;29247;50.944;5.382;2023-04-01T00:35:32;12.20;89.50
43651;DHT22;29247;50.944;5.382;2023-04-01T00:38:00;12.20;89.60
43651;DHT22;29247;50.944;5.382;2023-04-01T00:40:36;12.20;89.60
43651;DHT22;29247;50.944;5.382;2023-04-01T00:43:15;12.20;89.70
43651;DHT22;29247;50.944;5.382;2023-04-01T00:45:44;12.20;89.70
43651;DHT22;29247;50.944;5.382;2023-04-01T00:48:26;12.20;89.70
43651;DHT22;29247;50.944;5.382;2023-04-01T00:53:25;12.20;89.80
43651;DHT22;29247;50.944;5.382;2023-04-01T00:56:10;12.20;89.80
43651;DHT22;29247;50.944;5.382;2023-04-01T00:58:41;12.20;90.30
43651;DHT22;29247;50.944;5.382;2023-04-01T01:01:11;12.20;89.90
43651;DHT22;29247;50.944;5.382;2023-04-01T01:03:37;12.20;90.00
43651;DHT22;29247;50.944;5.382;2023-04-01T01:09:06;12.20;90.00
43651;DHT22;29247;50.944;5.382;2023-04-01T01:11:43;12.20;90.00
43651;DHT22;29247;50.944;5.382;2023-04-01T01:16:53;12.20;90.00
43651;DHT22;29247;50.944;5.382;2023-04-01T01:27:49;12.20;90.10
43651;DHT22;29247;50.944;5.382;2023-04-01T01:30:39;12.20;90.10
43651;DHT22;29247;50.944;5.382;2023-04-01T01:35:53;12.10;90.10
43651;DHT22;29247;50.944;5.382;2023-04-01T01:38:27;12.20;90.10
43651;DHT22;29247;50.944;5.382;2023-04-01T01:40:57;12.10;90.10
43651;DHT22;29247;50.944;5.382;2023-04-01T01:43:29;12.10;90.10
43651;DHT22;29247;50.944;5.382;2023-04-01T01:46:01;12.10;90.10
43651;DHT22;29247;50.944;5.382;2023-04-01T01:48:29;12.10;90.20
43651;DHT22;29247;50.944;5.382;2023-04-01T01:50:59;12.10;90.20
43651;DHT22;29247;50.944;5.382;2023-04-01T01:53:25;12.10;90.20
43651;DHT22;29247;50.944;5.382;2023-04-01T01:55:53;12.10;90.20
43651;DHT22;29247;50.944;5.382;2023-04-01T01:58:36;12.10;90.20
43651;DHT22;29247;50.944;5.382;2023-04-01T02:01:12;12.10;90.20
43651;DHT22;29247;50.944;5.382;2023-04-01T02:03:39;12.10;90.20
43651;DHT22;29247;50.944;5.382;2023-04-01T02:06:09;12.10;90.20
43651;DHT22;29247;50.944;5.382;2023-04-01T02:09:00;12.10;90.20
43651;DHT22;29247;50.944;5.382;2023-04-01T02:11:57;12.10;90.30
43651;DHT22;29247;50.944;5.382;2023-04-01T02:14:36;12.10;90.30
43651;DHT22;29247;50.944;5.382;2023-04-01T02:17:14;12.10;90.20
43651;DHT22;29247;50.944;5.382;2023-04-01T02:19:57;12.10;90.30
43651;DHT22;29247;50.944;5.382;2023-04-01T02:22:28;12.10;90.30
43651;DHT22;29247;50.944;5.382;2023-04-01T02:25:09;12.10;90.70
43651;DHT22;29247;50.944;5.382;2023-04-01T02:27:36;12.10;90.30
43651;DHT22;29247;50.944;5.382;2023-04-01T02:30:05;12.10;90.30
43651;DHT22;29247;50.944;5.382;2023-04-01T02:32:36;12.10;90.40
43651;DHT22;29247;50.944;5.382;2023-04-01T02:35:08;12.10;90.40
43651;DHT22;29247;50.944;5.382;2023-04-01T02:37:38;12.10;90.40
43651;DHT22;29247;50.944;5.382;2023-04-01T02:40:08;12.10;90.40
43651;DHT22;29247;50.944;5.382;2023-04-01T02:42:35;12.10;90.40
43651;DHT22;29247;50.944;5.382;2023-04-01T02:45:04;12.10;90.40
43651;DHT22;29247;50.944;5.382;2023-04-01T02:47:30;12.10;90.40
43651;DHT22;29247;50.944;5.382;2023-04-01T02:49:59;12.10;90.40
43651;DHT22;29247;50.944;5.382;2023-04-01T02:52:25;12.10;90.40
43651;DHT22;29247;50.944;5.382;2023-04-01T02:54:51;12.10;90.50
43651;DHT22;29247;50.944;5.382;2023-04-01T02:57:16;12.10;90.50
43651;DHT22;29247;50.944;5.382;2023-04-01T02:59:42;12.10;90.50
43651;DHT22;29247;50.944;5.382;2023-04-01T03:02:08;12.10;90.50
43651;DHT22;29247;50.944;5.382;2023-04-01T03:04:36;12.10;90.50
43651;DHT22;29247;50.944;5.382;2023-04-01T03:07:02;12.10;90.50
43651;DHT22;29247;50.944;5.382;2023-04-01T03:09:28;12.10;90.50
43651;DHT22;29247;50.944;5.382;2023-04-01T03:11:54;12.20;90.50
43651;DHT22;29247;50.944;5.382;2023-04-01T03:14:23;12.10;90.50
43651;DHT22;29247;50.944;5.382;2023-04-01T03:16:48;12.10;90.50
43651;DHT22;29247;50.944;5.382;2023-04-01T03:19:15;12.10;90.50
43651;DHT22;29247;50.944;5.382;2023-04-01T03:21:43;12.10;90.50
43651;DHT22;29247;50.944;5.382;2023-04-01T03:24:08;12.10;90.50
43651;DHT22;29247;50.944;5.382;2023-04-01T03:26:36;12.10;90.50
43651;DHT22;29247;50.944;5.382;2023-04-01T03:29:02;12.10;90.50
43651;DHT22;29247;50.944;5.382;2023-04-01T03:31:33;12.10;90.50
43651;DHT22;29247;50.944;5.382;2023-04-01T03:34:02;12.00;90.40
43651;DHT22;29247;50.944;5.382;2023-04-01T03:36:28;12.00;90.40
43651;DHT22;29247;50.944;5.382;2023-04-01T03:38:57;12.00;90.40
43651;DHT22;29247;50.944;5.382;2023-04-01T03:41:25;12.00;90.40
43651;DHT22;29247;50.944;5.382;2023-04-01T03:43:53;12.00;90.40
43651;DHT22;29247;50.944;5.382;2023-04-01T03:46:20;12.00;90.40
43651;DHT22;29247;50.944;5.382;2023-04-01T03:48:46;12.00;90.50
43651;DHT22;29247;50.944;5.382;2023-04-01T03:51:12;12.00;90.50
43651;DHT22;29247;50.944;5.382;2023-04-01T03:53:37;12.00;90.50
43651;DHT22;29247;50.944;5.382;2023-04-01T03:56:06;12.00;90.50
43651;DHT22;29247;50.944;5.382;2023-04-01T03:58:32;12.00;90.50
43651;DHT22;29247;50.944;5.382;2023-04-01T04:00:57;12.00;90.50
43651;DHT22;29247;50.944;5.382;2023-04-01T04:03:26;12.00;90.50
43651;DHT22;29247;50.944;5.382;2023-04-01T04:05:52;12.00;90.50
43651;DHT22;29247;50.944;5.382;2023-04-01T04:08:17;12.00;90.50
43651;DHT22;29247;50.944;5.382;2023-04-01T04:10:54;12.00;90.60
43651;DHT22;29247;50.944;5.382;2023-04-01T04:13:20;12.00;90.50
43651;DHT22;29247;50.944;5.382;2023-04-01T04:15:46;12.00;90.50
43651;DHT22;29247;50.944;5.382;2023-04-01T04:18:14;12.00;90.60
43651;DHT22;29247;50.944;5.382;2023-04-01T04:20:46;11.90;90.60
43651;DHT22;29247;50.944;5.382;2023-04-01T04:23:13;11.90;90.60
43651;DHT22;29247;50.944;5.382;2023-04-01T04:25:53;11.90;90.60
43651;DHT22;29247;50.944;5.382;2023-04-01T04:28:19;11.90;90.60
43651;DHT22;29247;50.944;5.382;2023-04-01T04:30:45;11.90;90.50
43651;DHT22;29247;50.944;5.382;2023-04-01T04:33:11;11.90;90.60
43651;DHT22;29247;50.944;5.382;2023-04-01T04:35:41;11.90;90.60
43651;DHT22;29247;50.944;5.382;2023-04-01T04:38:07;11.90;90.60
43651;DHT22;29247;50.944;5.382;2023-04-01T04:40:36;11.90;90.60
43651;DHT22;29247;50.944;5.382;2023-04-01T04:43:06;11.90;90.70
43651;DHT22;29247;50.944;5.382;2023-04-01T04:45:35;11.90;90.70
43651;DHT22;29247;50.944;5.382;2023-04-01T04:48:01;11.90;90.70
43651;DHT22;29247;50.944;5.382;2023-04-01T04:50:29;11.90;90.70
43651;DHT22;29247;50.944;5.382;2023-04-01T04:52:54;11.90;90.70
43651;DHT22;29247;50.944;5.382;2023-04-01T04:55:21;11.90;90.80
43651;DHT22;29247;50.944;5.382;2023-04-01T04:57:46;11.90;90.70
43651;DHT22;29247;50.944;5.382;2023-04-01T05:00:16;11.90;90.80
43651;DHT22;29247;50.944;5.382;2023-04-01T05:02:46;11.90;90.80
43651;DHT22;29247;50.944;5.382;2023-04-01T05:05:11;11.90;90.80
43651;DHT22;29247;50.944;5.382;2023-04-01T05:07:40;11.90;90.80
43651;DHT22;29247;50.944;5.382;2023-04-01T05:10:06;11.90;90.70
43651;DHT22;29247;50.944;5.382;2023-04-01T05:12:31;11.90;90.80
43651;DHT22;29247;50.944;5.382;2023-04-01T05:15:04;11.90;90.80
43651;DHT22;29247;50.944;5.382;2023-04-01T05:17:30;11.90;90.80
43651;DHT22;29247;50.944;5.382;2023-04-01T05:19:58;11.90;90.80
43651;DHT22;29247;50.944;5.382;2023-04-01T05:22:24;11.90;90.80
43651;DHT22;29247;50.944;5.382;2023-04-01T05:24:54;11.90;90.80
43651;DHT22;29247;50.944;5.382;2023-04-01T05:27:20;11.90;90.80
43651;DHT22;29247;50.944;5.382;2023-04-01T05:29:50;11.90;90.80
43651;DHT22;29247;50.944;5.382;2023-04-01T05:32:20;11.80;90.80
43651;DHT22;29247;50.944;5.382;2023-04-01T05:34:46;11.90;90.90
43651;DHT22;29247;50.944;5.382;2023-04-01T05:37:14;11.90;90.90
43651;DHT22;29247;50.944;5.382;2023-04-01T05:39:40;11.80;90.90
43651;DHT22;29247;50.944;5.382;2023-04-01T05:42:06;11.90;90.90
43651;DHT22;29247;50.944;5.382;2023-04-01T05:44:35;11.80;90.90
43651;DHT22;29247;50.944;5.382;2023-04-01T05:47:06;11.80;90.90
43651;DHT22;29247;50.944;5.382;2023-04-01T05:49:33;11.80;90.90
43651;DHT22;29247;50.944;5.382;2023-04-01T05:52:01;11.80;90.90
43651;DHT22;29247;50.944;5.382;2023-04-01T05:54:26;11.80;90.90
43651;DHT22;29247;50.944;5.382;2023-04-01T05:56:55;11.80;91.00
43651;DHT22;29247;50.944;5.382;2023-04-01T05:59:23;11.80;90.90
43651;DHT22;29247;50.944;5.382;2023-04-01T06:01:48;11.90;91.00
43651;DHT22;29247;50.944;5.382;2023-04-01T06:04:16;11.80;90.90
43651;DHT22;29247;50.944;5.382;2023-04-01T06:06:42;11.80;90.90
43651;DHT22;29247;50.944;5.382;2023-04-01T06:09:18;11.90;91.00
43651;DHT22;29247;50.944;5.382;2023-04-01T06:23:02;11.90;91.00
43651;DHT22;29247;50.944;5.382;2023-04-01T06:37:03;11.90;91.10
43651;DHT22;29247;50.944;5.382;2023-04-01T06:39:46;11.90;91.10
43651;DHT22;29247;50.944;5.382;2023-04-01T06:45:10;11.90;91.10
43651;DHT22;29247;50.944;5.382;2023-04-01T06:47:43;11.90;91.10
43651;DHT22;29247;50.944;5.382;2023-04-01T06:51:16;11.90;91.10
43651;DHT22;29247;50.944;5.382;2023-04-01T06:56:25;12.00;91.10
43651;DHT22;29247;50.944;5.382;2023-04-01T06:59:11;12.00;91.00
43651;DHT22;29247;50.944;5.382;2023-04-01T07:01:50;11.90;91.00
43651;DHT22;29247;50.944;5.382;2023-04-01T07:04:25;12.00;91.00
43651;DHT22;29247;50.944;5.382;2023-04-01T07:06:58;11.90;91.00
43651;DHT22;29247;50.944;5.382;2023-04-01T07:09:32;11.90;91.00
43651;DHT22;29247;50.944;5.382;2023-04-01T07:12:02;11.90;91.00
43651;DHT22;29247;50.944;5.382;2023-04-01T07:14:39;12.00;91.00
43651;DHT22;29247;50.944;5.382;2023-04-01T07:17:22;12.00;91.10
43651;DHT22;29247;50.944;5.382;2023-04-01T07:20:13;12.00;91.10
43651;DHT22;29247;50.944;5.382;2023-04-01T07:22:48;12.00;91.00
43651;DHT22;29247;50.944;5.382;2023-04-01T07:27:45;12.00;91.10
43651;DHT22;29247;50.944;5.382;2023-04-01T07:30:21;12.00;91.10
43651;DHT22;29247;50.944;5.382;2023-04-01T07:32:55;12.00;91.10
43651;DHT22;29247;50.944;5.382;2023-04-01T07:38:09;12.00;91.10
43651;DHT22;29247;50.944;5.382;2023-04-01T07:43:36;12.10;91.20
43651;DHT22;29247;50.944;5.382;2023-04-01T07:51:29;12.10;91.10
43651;DHT22;29247;50.944;5.382;2023-04-01T07:54:21;12.10;91.00
43651;DHT22;29247;50.944;5.382;2023-04-01T07:59:37;12.20;91.10
43651;DHT22;29247;50.944;5.382;2023-04-01T08:05:22;12.20;91.10
43651;DHT22;29247;50.944;5.382;2023-04-01T08:10:29;12.20;90.90
43651;DHT22;29247;50.944;5.382;2023-04-01T08:13:15;12.20;91.00
43651;DHT22;29247;50.944;5.382;2023-04-01T08:21:08;12.20;90.70
43651;DHT22;29247;50.944;5.382;2023-04-01T08:23:41;12.20;90.70
43651;DHT22;29247;50.944;5.382;2023-04-01T08:26:27;12.20;90.80
43651;DHT22;29247;50.944;5.382;2023-04-01T08:28:59;12.20;90.80
43651;DHT22;29247;50.944;5.382;2023-04-01T08:31:56;12.20;90.70
43651;DHT22;29247;50.944;5.382;2023-04-01T08:34:45;12.20;90.70
43651;DHT22;29247;50.944;5.382;2023-04-01T08:37:26;12.20;90.80
43651;DHT22;29247;50.944;5.382;2023-04-01T08:40:00;12.20;90.80
43651;DHT22;29247;50.944;5.382;2023-04-01T08:42:58;12.20;90.80
43651;DHT22;29247;50.944;5.382;2023-04-01T08:57:01;12.30;90.90
43651;DHT22;29247;50.944;5.382;2023-04-01T08:59:50;12.40;91.00
43651;DHT22;29247;50.944;5.382;2023-04-01T09:17:08;12.60;90.90
43651;DHT22;29247;50.944;5.382;2023-04-01T09:22:50;12.60;90.60
43651;DHT22;29247;50.944;5.382;2023-04-01T09:37:27;12.80;90.90
43651;DHT22;29247;50.944;5.382;2023-04-01T09:48:01;12.90;90.50
43651;DHT22;29247;50.944;5.382;2023-04-01T09:50:51;12.90;90.70
43651;DHT22;29247;50.944;5.382;2023-04-01T10:33:01;13.20;90.00
43651;DHT22;29247;50.944;5.382;2023-04-01T11:12:47;13.30;89.60
43651;DHT22;29247;50.944;5.382;2023-04-01T11:15:28;13.30;89.80
43651;DHT22;29247;50.944;5.382;2023-04-01T11:23:53;13.30;90.00
43651;DHT22;29247;50.944;5.382;2023-04-01T11:26:50;13.30;89.90
43651;DHT22;29247;50.944;5.382;2023-04-01T11:31:58;13.30;89.50
43651;DHT22;29247;50.944;5.382;2023-04-01T11:40:29;13.30;89.60
43651;DHT22;29247;50.944;5.382;2023-04-01T11:45:50;13.30;90.00
43651;DHT22;29247;50.944;5.382;2023-04-01T11:48:25;13.40;90.10
43651;DHT22;29247;50.944;5.382;2023-04-01T11:51:30;13.40;90.10
43651;DHT22;29247;50.944;5.382;2023-04-01T11:54:33;13.40;90.30
43651;DHT22;29247;50.944;5.382;2023-04-01T12:03:17;13.50;90.00
43651;DHT22;29247;50.944;5.382;2023-04-01T12:31:41;13.70;89.40
43651;DHT22;29247;50.944;5.382;2023-04-01T12:45:38;13.60;88.80
43651;DHT22;29247;50.944;5.382;2023-04-01T12:51:35;13.50;88.70
43651;DHT22;29247;50.944;5.382;2023-04-01T12:54:10;13.50;88.60
43651;DHT22;29247;50.944;5.382;2023-04-01T13:05:38;13.40;88.40
43651;DHT22;29247;50.944;5.382;2023-04-01T13:16:39;13.30;88.70
43651;DHT22;29247;50.944;5.382;2023-04-01T13:43:34;13.60;87.50
43651;DHT22;29247;50.944;5.382;2023-04-01T13:54:19;13.60;87.90
43651;DHT22;29247;50.944;5.382;2023-04-01T13:57:19;13.60;88.00
43651;DHT22;29247;50.944;5.382;2023-04-01T14:00:17;13.60;88.70
43651;DHT22;29247;50.944;5.382;2023-04-01T14:24:45;13.90;87.60
43651;DHT22;29247;50.944;5.382;2023-04-01T14:30:43;13.80;87.30
43651;DHT22;29247;50.944;5.382;2023-04-01T14:46:14;13.70;87.50
43651;DHT22;29247;50.944;5.382;2023-04-01T14:48:52;13.70;87.80
43651;DHT22;29247;50.944;5.382;2023-04-01T14:51:39;13.70;88.00
43651;DHT22;29247;50.944;5.382;2023-04-01T14:54:17;13.70;88.00
43651;DHT22;29247;50.944;5.382;2023-04-01T14:57:04;13.70;87.80
43651;DHT22;29247;50.944;5.382;2023-04-01T14:59:30;13.70;87.60
43651;DHT22;29247;50.944;5.382;2023-04-01T15:05:03;13.70;87.80
43651;DHT22;29247;50.944;5.382;2023-04-01T15:18:42;13.60;87.10
43651;DHT22;29247;50.944;5.382;2023-04-01T15:32:13;13.50;87.50
43651;DHT22;29247;50.944;5.382;2023-04-01T15:35:34;13.50;87.80
43651;DHT22;29247;50.944;5.382;2023-04-01T15:37:57;13.50;87.60
43651;DHT22;29247;50.944;5.382;2023-04-01T15:40:32;13.50;87.70
43651;DHT22;29247;50.944;5.382;2023-04-01T15:43:12;13.50;87.80
43651;DHT22;29247;50.944;5.382;2023-04-01T15:49:01;13.50;88.10
43651;DHT22;29247;50.944;5.382;2023-04-01T15:51:43;13.50;87.90
43651;DHT22;29247;50.944;5.382;2023-04-01T16:14:26;13.60;87.10
43651;DHT22;29247;50.944;5.382;2023-04-01T16:17:21;13.60;86.80
43651;DHT22;29247;50.944;5.382;2023-04-01T16:19:59;13.60;86.50
43651;DHT22;29247;50.944;5.382;2023-04-01T16:22:58;13.50;85.80
43651;DHT22;29247;50.944;5.382;2023-04-01T16:25:41;13.50;86.20
43651;DHT22;29247;50.944;5.382;2023-04-01T16:33:51;13.40;86.10
43651;DHT22;29247;50.944;5.382;2023-04-01T16:42:09;13.20;86.20
43651;DHT22;29247;50.944;5.382;2023-04-01T16:47:40;13.10;86.70
43651;DHT22;29247;50.944;5.382;2023-04-01T16:50:25;13.10;86.30
43651;DHT22;29247;50.944;5.382;2023-04-01T16:55:35;13.00;86.70
43651;DHT22;29247;50.944;5.382;2023-04-01T16:58:07;13.00;86.60
43651;DHT22;29247;50.944;5.382;2023-04-01T17:00:41;12.90;86.60
43651;DHT22;29247;50.944;5.382;2023-04-01T17:03:22;12.90;86.70
43651;DHT22;29247;50.944;5.382;2023-04-01T17:22:31;12.70;86.90
43651;DHT22;29247;50.944;5.382;2023-04-01T17:28:16;12.70;87.10
43651;DHT22;29247;50.944;5.382;2023-04-01T17:33:30;12.60;86.80
43651;DHT22;29247;50.944;5.382;2023-04-01T17:36:41;12.50;86.90
43651;DHT22;29247;50.944;5.382;2023-04-01T17:39:29;12.50;87.10
43651;DHT22;29247;50.944;5.382;2023-04-01T17:42:19;12.50;87.10
43651;DHT22;29247;50.944;5.382;2023-04-01T17:47:43;12.40;87.30
43651;DHT22;29247;50.944;5.382;2023-04-01T17:50:33;12.40;87.50
43651;DHT22;29247;50.944;5.382;2023-04-01T17:58:45;12.30;88.00
43651;DHT22;29247;50.944;5.382;2023-04-01T18:15:31;12.20;88.40
43651;DHT22;29247;50.944;5.382;2023-04-01T18:23:39;12.20;88.80
43651;DHT22;29247;50.944;5.382;2023-04-01T18:26:10;12.20;88.90
43651;DHT22;29247;50.944;5.382;2023-04-01T18:28:43;12.20;89.00
43651;DHT22;29247;50.944;5.382;2023-04-01T18:31:19;12.20;89.00
43651;DHT22;29247;50.944;5.382;2023-04-01T18:34:47;12.20;89.10
43651;DHT22;29247;50.944;5.382;2023-04-01T18:36:59;12.20;89.20
43651;DHT22;29247;50.944;5.382;2023-04-01T18:39:47;12.20;89.10
43651;DHT22;29247;50.944;5.382;2023-04-01T18:47:57;12.10;89.30
43651;DHT22;29247;50.944;5.382;2023-04-01T18:50:30;12.00;89.30
43651;DHT22;29247;50.944;5.382;2023-04-01T18:55:49;12.10;89.40
43651;DHT22;29247;50.944;5.382;2023-04-01T18:58:37;12.10;89.30
43651;DHT22;29247;50.944;5.382;2023-04-01T19:01:24;12.00;89.70
43651;DHT22;29247;50.944;5.382;2023-04-01T19:04:10;12.10;89.80
43651;DHT22;29247;50.944;5.382;2023-04-01T19:06:48;12.10;89.90
43651;DHT22;29247;50.944;5.382;2023-04-01T19:11:50;12.00;90.00
43651;DHT22;29247;50.944;5.382;2023-04-01T19:14:44;12.00;90.00
43651;DHT22;29247;50.944;5.382;2023-04-01T19:23:19;12.00;90.10
43651;DHT22;29247;50.944;5.382;2023-04-01T19:26:14;12.00;90.10
43651;DHT22;29247;50.944;5.382;2023-04-01T19:29:06;12.00;90.20
43651;DHT22;29247;50.944;5.382;2023-04-01T19:34:49;12.00;90.20
43651;DHT22;29247;50.944;5.382;2023-04-01T19:40:42;12.10;90.50
43651;DHT22;29247;50.944;5.382;2023-04-01T19:45:53;12.00;90.20
43651;DHT22;29247;50.944;5.382;2023-04-01T19:48:59;12.00;90.30
43651;DHT22;29247;50.944;5.382;2023-04-01T19:51:35;12.00;90.30
43651;DHT22;29247;50.944;5.382;2023-04-01T20:27:44;12.00;90.70
43651;DHT22;29247;50.944;5.382;2023-04-01T20:39:15;12.00;90.70
43651;DHT22;29247;50.944;5.382;2023-04-01T20:48:05;12.00;90.80
43651;DHT22;29247;50.944;5.382;2023-04-01T20:50:59;12.00;90.90
43651;DHT22;29247;50.944;5.382;2023-04-01T20:53:36;12.00;90.90
43651;DHT22;29247;50.944;5.382;2023-04-01T21:01:44;12.00;91.10
43651;DHT22;29247;50.944;5.382;2023-04-01T21:21:03;12.00;91.20
43651;DHT22;29247;50.944;5.382;2023-04-01T21:32:36;12.10;91.20
43651;DHT22;29247;50.944;5.382;2023-04-01T21:38:08;12.00;91.30
43651;DHT22;29247;50.944;5.382;2023-04-01T21:52:24;11.80;91.20
43651;DHT22;29247;50.944;5.382;2023-04-01T21:54:59;11.80;91.10
43651;DHT22;29247;50.944;5.382;2023-04-01T22:03:38;11.70;91.10
43651;DHT22;29247;50.944;5.382;2023-04-01T22:06:15;11.70;91.10
43651;DHT22;29247;50.944;5.382;2023-04-01T22:09:00;11.60;91.10
43651;DHT22;29247;50.944;5.382;2023-04-01T22:12:09;11.60;91.20
43651;DHT22;29247;50.944;5.382;2023-04-01T22:28:32;11.50;90.80
43651;DHT22;29247;50.944;5.382;2023-04-01T22:31:02;11.50;90.80
43651;DHT22;29247;50.944;5.382;2023-04-01T22:41:31;11.40;91.00
43651;DHT22;29247;50.944;5.382;2023-04-01T22:44:03;11.40;91.00
43651;DHT22;29247;50.944;5.382;2023-04-01T22:49:22;11.40;91.10
43651;DHT22;29247;50.944;5.382;2023-04-01T22:52:30;11.40;91.10
43651;DHT22;29247;50.944;5.382;2023-04-01T22:55:04;11.40;91.20
43651;DHT22;29247;50.944;5.382;2023-04-01T22:57:46;11.30;90.90
43651;DHT22;29247;50.944;5.382;2023-04-01T23:00:25;11.30;91.00
43651;DHT22;29247;50.944;5.382;2023-04-01T23:05:59;11.20;90.90
43651;DHT22;29247;50.944;5.382;2023-04-01T23:17:03;11.10;91.00
43651;DHT22;29247;50.944;5.382;2023-04-01T23:27:41;10.90;91.10
43651;DHT22;29247;50.944;5.382;2023-04-01T23:36:00;11.00;90.90
43651;DHT22;29247;50.944;5.382;2023-04-01T23:38:40;10.90;90.80
43651;DHT22;29247;50.944;5.382;2023-04-01T23:41:24;10.80;90.80
43651;DHT22;29247;50.944;5.382;2023-04-01T23:44:11;10.80;90.80
43651;DHT22;29247;50.944;5.382;2023-04-01T23:46:40;10.80;90.80
43651;DHT22;29247;50.944;5.382;2023-04-01T23:49:16;10.80;90.80
43651;DHT22;29247;50.944;5.382;2023-04-01T23:51:59;10.80;90.70
43651;DHT22;29247;50.944;5.382;2023-04-01T23:54:53;10.70;90.70
43651;DHT22;29247;50.944;5.382;2023-04-01T23:57:28;10.70;90.70
